Time;durP1;ratioP1;P1;durP2;ratioP2;P2;SDS_P1;SDS_P2;PMS_P1;PMS_P2;Temp;Humidity;BMP_temperature;BMP_pressure;BME280_temperature;BME280_humidity;BME280_pressure;Samples;Min_cycle;Max_cycle;Signal;HPM_P1;HPM_P2
2023/09/18 00:00:21;;;;;;;4.93;3.53;;;;;;;20.02;99.14;100335.53;5075563;28;20039;-66
2023/09/18 00:02:47;;;;;;;5.97;3.20;;;;;;;20.13;98.49;100345.63;5079651;28;20052;-65
2023/09/18 00:05:15;;;;;;;5.03;3.00;;;;;;;20.01;98.34;100340.06;5079330;28;20036;-66
2023/09/18 00:07:43;;;;;;;3.75;2.80;;;;;;;20.13;97.78;100336.75;5080586;28;20044;-64
2023/09/18 00:10:12;;;;;;;6.80;2.80;;;;;;;20.03;97.81;100334.50;5079303;28;20040;-64
2023/09/18 00:12:38;;;;;;;5.22;3.30;;;;;;;20.02;97.87;100339.03;5079619;28;20082;-64
2023/09/18 00:15:05;;;;;;;5.40;3.00;;;;;;;20.03;97.53;100337.19;5080669;28;20337;-66
2023/09/18 00:17:30;;;;;;;5.43;2.83;;;;;;;20.11;97.39;100328.91;5079286;28;20252;-64
2023/09/18 00:19:56;;;;;;;5.80;2.78;;;;;;;20.14;96.60;100335.72;5081240;28;20056;-66
2023/09/18 00:22:21;;;;;;;5.13;3.15;;;;;;;20.18;96.56;100335.09;5079506;28;20055;-64
2023/09/18 00:24:47;;;;;;;5.82;3.05;;;;;;;20.12;96.78;100335.94;5079821;28;20032;-66
2023/09/18 00:27:13;;;;;;;5.72;4.35;;;;;;;20.21;95.98;100334.66;5078900;28;20119;-66
2023/09/18 00:29:39;;;;;;;5.70;3.25;;;;;;;20.25;95.63;100335.91;5079177;28;20032;-66
2023/09/18 00:32:06;;;;;;;4.68;3.10;;;;;;;20.37;94.92;100334.22;5080322;28;20043;-63
2023/09/18 00:34:32;;;;;;;4.13;2.75;;;;;;;20.39;95.18;100337.53;5078258;28;20119;-66
2023/09/18 00:36:59;;;;;;;6.22;3.08;;;;;;;20.33;95.04;100341.03;5079884;28;20330;-66
2023/09/18 00:39:24;;;;;;;5.22;3.15;;;;;;;20.30;95.74;100335.25;5077591;28;20318;-64
2023/09/18 00:41:53;;;;;;;4.55;2.97;;;;;;;20.35;95.66;100335.44;5079784;28;20067;-66
2023/09/18 00:44:22;;;;;;;4.50;3.58;;;;;;;20.36;95.71;100331.72;5079234;28;20040;-66
2023/09/18 00:46:49;;;;;;;6.78;3.90;;;;;;;20.35;96.40;100330.06;5079426;28;20079;-65
2023/09/18 00:49:16;;;;;;;4.63;3.22;;;;;;;20.38;96.21;100329.66;5078456;28;20029;-64
2023/09/18 00:51:42;;;;;;;5.03;3.80;;;;;;;20.45;95.82;100330.50;5078290;28;20494;-66
2023/09/18 00:54:09;;;;;;;6.28;3.97;;;;;;;20.35;96.08;100330.91;5078735;28;20070;-66
2023/09/18 00:56:35;;;;;;;4.82;3.40;;;;;;;20.52;95.24;100331.28;5078880;28;20130;-66
2023/09/18 00:59:03;;;;;;;5.22;3.35;;;;;;;20.36;95.36;100332.56;5078176;28;20068;-66
2023/09/18 01:01:29;;;;;;;7.03;3.97;;;;;;;20.38;95.97;100326.97;5080400;28;20036;-64
2023/09/18 01:03:56;;;;;;;5.50;3.30;;;;;;;20.23;96.75;100323.69;5078204;28;20044;-66
2023/09/18 01:06:24;;;;;;;3.95;3.55;;;;;;;20.40;96.24;100325.75;5077935;28;20281;-64
2023/09/18 01:08:53;;;;;;;6.63;3.78;;;;;;;20.27;95.74;100323.06;5079143;28;20024;-64
2023/09/18 01:11:42;;;;;;;7.18;3.97;;;;;;;20.52;95.33;100323.22;5078329;28;20443;-64
2023/09/18 01:14:23;;;;;;;6.80;3.95;;;;;;;20.72;94.11;100328.53;5066333;28;20055;-64
2023/09/18 01:16:56;;;;;;;7.97;3.42;;;;;;;20.76;93.78;100326.22;5078006;28;20036;-64
2023/09/18 01:19:45;;;;;;;6.30;3.33;;;;;;;20.67;93.50;100323.78;5078641;28;20091;-64
2023/09/18 01:22:12;;;;;;;3.88;3.50;;;;;;;20.78;93.19;100324.97;5077615;28;20368;-65
2023/09/18 01:24:38;;;;;;;7.10;3.45;;;;;;;20.98;92.03;100330.28;5078393;28;20040;-66
2023/09/18 01:27:07;;;;;;;6.00;3.30;;;;;;;21.03;91.72;100338.53;5077189;28;20029;-66
2023/09/18 01:29:32;;;;;;;5.72;3.40;;;;;;;21.18;91.31;100332.84;5059429;28;20044;-66
2023/09/18 01:31:58;;;;;;;4.70;3.20;;;;;;;21.30;90.29;100328.47;5070665;28;20033;-64
2023/09/18 01:34:31;;;;;;;6.10;3.03;;;;;;;21.34;89.54;100335.88;5078493;28;20265;-65
2023/09/18 01:36:58;;;;;;;3.55;2.85;;;;;;;21.30;88.90;100323.91;5077021;28;20040;-66
2023/09/18 01:39:27;;;;;;;5.97;2.88;;;;;;;21.38;88.41;100330.06;5077652;28;20032;-64
2023/09/18 01:41:52;;;;;;;4.90;3.08;;;;;;;21.46;87.89;100324.41;5078760;28;20234;-64
2023/09/18 01:44:18;;;;;;;3.70;3.20;;;;;;;21.49;87.54;100337.44;5077828;28;20063;-65
2023/09/18 01:46:44;;;;;;;4.53;2.75;;;;;;;21.57;87.45;100337.16;5077285;28;20041;-64
2023/09/18 01:49:09;;;;;;;5.20;3.38;;;;;;;21.65;86.84;100335.03;5076919;28;20040;-64
2023/09/18 01:51:35;;;;;;;4.93;2.85;;;;;;;21.70;87.07;100331.66;5077957;28;20112;-64
2023/09/18 01:54:01;;;;;;;5.68;3.35;;;;;;;21.74;86.69;100332.06;5076868;28;20040;-64
2023/09/18 01:56:26;;;;;;;6.50;3.30;;;;;;;21.77;86.21;100329.75;5078284;28;20032;-66
2023/09/18 01:58:51;;;;;;;6.95;3.83;;;;;;;21.81;85.93;100327.44;5076411;28;20028;-64
2023/09/18 02:01:17;;;;;;;9.25;3.25;;;;;;;21.82;85.55;100332.59;5078364;28;20040;-66
2023/09/18 02:03:42;;;;;;;5.65;3.42;;;;;;;21.87;86.05;100330.09;5077166;28;20032;-64
2023/09/18 02:06:08;;;;;;;5.07;3.13;;;;;;;21.85;86.98;100334.06;5077265;28;20074;-64
2023/09/18 02:08:34;;;;;;;5.95;3.75;;;;;;;21.83;86.15;100331.56;5077796;28;20123;-63
2023/09/18 02:11:00;;;;;;;4.40;3.22;;;;;;;21.88;85.65;100329.06;5077858;28;20078;-64
2023/09/18 02:13:25;;;;;;;3.92;3.00;;;;;;;21.87;85.87;100334.66;5077286;28;20044;-66
2023/09/18 02:15:51;;;;;;;5.20;3.33;;;;;;;21.90;85.22;100335.03;5078558;28;20326;-66
2023/09/18 02:18:16;;;;;;;5.22;3.42;;;;;;;21.93;85.09;100329.22;5076656;28;20303;-66
2023/09/18 02:20:44;;;;;;;4.25;3.15;;;;;;;21.94;84.45;100330.84;5078644;28;20039;-66
2023/09/18 02:23:09;;;;;;;3.58;2.80;;;;;;;21.96;84.61;100327.94;5076486;28;20044;-66
2023/09/18 02:25:35;;;;;;;3.45;2.70;;;;;;;21.95;84.53;100319.03;5076997;28;20035;-66
2023/09/18 02:28:00;;;;;;;5.55;3.10;;;;;;;22.01;84.87;100329.97;5077959;28;20044;-64
2023/09/18 02:30:26;;;;;;;5.40;3.15;;;;;;;22.00;84.41;100321.06;5075599;28;20029;-64
2023/09/18 02:32:51;;;;;;;7.30;3.53;;;;;;;22.04;84.31;100329.56;5076213;28;20037;-66
2023/09/18 02:35:16;;;;;;;4.53;2.90;;;;;;;22.03;84.86;100334.13;5076955;28;20044;-63
2023/09/18 02:37:42;;;;;;;4.93;3.47;;;;;;;21.98;84.49;100334.75;5077375;28;20253;-64
2023/09/18 02:40:08;;;;;;;4.03;2.88;;;;;;;21.96;85.01;100336.84;5076388;28;20248;-64
2023/09/18 02:42:33;;;;;;;8.57;3.35;;;;;;;21.96;85.18;100333.34;5076600;28;20040;-64
2023/09/18 02:44:59;;;;;;;4.70;2.97;;;;;;;21.98;85.13;100329.38;5077379;28;20226;-66
2023/09/18 02:47:24;;;;;;;6.00;3.40;;;;;;;22.00;84.77;100331.84;5075400;28;20284;-64
2023/09/18 02:49:50;;;;;;;5.40;3.05;;;;;;;22.02;84.54;100337.00;5076975;28;20083;-66
2023/09/18 02:52:15;;;;;;;5.05;3.25;;;;;;;22.03;83.63;100336.00;5076987;28;20581;-65
2023/09/18 02:54:41;;;;;;;4.40;3.45;;;;;;;22.03;84.05;100336.81;5075952;28;20334;-64
2023/09/18 02:57:06;;;;;;;5.70;3.20;;;;;;;22.02;84.61;100343.22;5076980;28;20028;-64
2023/09/18 02:59:32;;;;;;;5.72;3.35;;;;;;;22.02;84.11;100345.94;5075696;28;20036;-64
2023/09/18 03:01:57;;;;;;;4.85;3.58;;;;;;;22.03;84.27;100338.69;5076131;28;20146;-64
2023/09/18 03:04:23;;;;;;;4.43;3.17;;;;;;;21.97;84.45;100353.84;5076797;28;20081;-66
2023/09/18 03:06:49;;;;;;;4.72;3.45;;;;;;;21.96;83.85;100344.13;5076306;28;20028;-64
2023/09/18 03:09:15;;;;;;;4.43;3.10;;;;;;;21.96;83.77;100352.22;5076518;28;20063;-66
2023/09/18 03:11:41;;;;;;;5.57;3.80;;;;;;;21.99;83.46;100352.59;5077071;28;20249;-66
2023/09/18 03:14:06;;;;;;;6.65;3.30;;;;;;;21.94;83.70;100344.34;5057876;28;20037;-64
2023/09/18 03:16:33;;;;;;;8.73;3.75;;;;;;;21.98;83.69;100350.94;5074151;28;20102;-65
2023/09/18 03:18:58;;;;;;;5.78;3.17;;;;;;;21.96;84.02;100344.13;5076671;28;20035;-66
2023/09/18 03:21:24;;;;;;;5.78;3.13;;;;;;;21.95;84.72;100346.00;5075307;28;20317;-66
2023/09/18 03:23:50;;;;;;;6.30;3.80;;;;;;;21.97;84.56;100343.06;5076504;28;20344;-66
2023/09/18 03:26:15;;;;;;;4.95;3.25;;;;;;;21.99;84.02;100349.06;5074897;28;20235;-64
2023/09/18 03:28:41;;;;;;;7.22;3.90;;;;;;;21.98;83.99;100345.53;5076165;28;20032;-64
2023/09/18 03:31:06;;;;;;;4.25;3.35;;;;;;;21.96;83.91;100352.22;5077156;28;20043;-64
2023/09/18 03:33:32;;;;;;;8.68;3.65;;;;;;;21.95;84.45;100346.00;5075884;28;20050;-66
2023/09/18 03:35:58;;;;;;;6.20;3.90;;;;;;;21.99;85.05;100344.50;5076027;28;20238;-65
2023/09/18 03:38:24;;;;;;;5.53;3.53;;;;;;;22.02;85.45;100345.09;5079371;28;20040;-66
2023/09/18 03:40:50;;;;;;;6.97;3.75;;;;;;;21.99;84.92;100340.97;5080178;28;20319;-64
2023/09/18 03:43:16;;;;;;;12.30;3.58;;;;;;;21.98;84.96;100337.47;5080931;28;20082;-64
2023/09/18 03:45:41;;;;;;;5.00;3.45;;;;;;;21.99;85.42;100346.38;5079582;28;20090;-66
2023/09/18 03:48:07;;;;;;;5.90;3.50;;;;;;;21.99;85.67;100339.09;5080819;28;20294;-66
2023/09/18 03:50:32;;;;;;;7.57;4.00;;;;;;;21.98;85.00;100350.94;5078752;28;20032;-64
2023/09/18 03:52:58;;;;;;;5.82;3.63;;;;;;;21.95;85.30;100345.16;5080874;28;20044;-66
2023/09/18 03:55:24;;;;;;;8.00;3.75;;;;;;;21.96;85.52;100349.50;5079813;28;20257;-66
2023/09/18 03:57:49;;;;;;;7.68;4.05;;;;;;;21.96;86.17;100346.81;5079676;28;20036;-65
2023/09/18 04:00:16;;;;;;;11.98;4.53;;;;;;;21.96;86.28;100357.59;5080773;28;20067;-64
2023/09/18 04:02:41;;;;;;;8.60;4.00;;;;;;;21.95;86.48;100356.78;5080488;28;20048;-66
2023/09/18 04:05:07;;;;;;;11.52;4.20;;;;;;;21.95;86.31;100359.47;5079600;28;20355;-65
2023/09/18 04:07:33;;;;;;;6.28;3.70;;;;;;;21.96;86.14;100357.59;5078878;28;20060;-64
2023/09/18 04:09:58;;;;;;;7.03;3.80;;;;;;;21.92;86.01;100370.69;5080141;28;20103;-64
2023/09/18 04:12:24;;;;;;;8.20;3.88;;;;;;;21.93;85.93;100358.88;5078657;28;20254;-66
2023/09/18 04:14:49;;;;;;;6.45;3.33;;;;;;;21.89;85.88;100362.22;5079542;28;20036;-64
2023/09/18 04:17:15;;;;;;;7.43;3.47;;;;;;;21.88;85.68;100361.41;5080336;28;20039;-64
2023/09/18 04:19:41;;;;;;;6.38;3.50;;;;;;;21.91;85.55;100357.44;5079693;28;20032;-66
2023/09/18 04:22:06;;;;;;;6.63;3.78;;;;;;;21.91;85.03;100360.13;5079049;28;20067;-66
2023/09/18 04:24:32;;;;;;;5.07;3.30;;;;;;;21.90;85.04;100359.31;5079083;28;20032;-66
2023/09/18 04:26:57;;;;;;;6.57;3.55;;;;;;;21.94;85.16;100355.13;5080612;28;20040;-64
2023/09/18 04:29:22;;;;;;;7.40;3.60;;;;;;;21.96;85.22;100360.28;5079228;28;20039;-64
2023/09/18 04:31:48;;;;;;;6.45;3.63;;;;;;;21.91;85.41;100357.44;5078494;28;20090;-64
2023/09/18 04:34:14;;;;;;;6.53;3.72;;;;;;;21.85;84.63;100363.72;5078516;28;20192;-64
2023/09/18 04:36:39;;;;;;;5.55;3.28;;;;;;;21.89;84.52;100349.56;5078930;28;20127;-64
2023/09/18 04:39:05;;;;;;;7.05;4.35;;;;;;;21.92;84.24;100359.09;5078567;28;20048;-65
2023/09/18 04:41:31;;;;;;;7.03;3.38;;;;;;;21.95;84.75;100361.34;5079637;28;20451;-66
2023/09/18 04:43:57;;;;;;;6.30;3.35;;;;;;;21.98;84.66;100360.91;5078642;28;20078;-66
2023/09/18 04:46:23;;;;;;;8.13;3.78;;;;;;;21.96;84.43;100361.13;5077736;28;20036;-65
2023/09/18 04:48:49;;;;;;;4.40;3.25;;;;;;;22.01;84.28;100356.94;5076161;28;20066;-64
2023/09/18 04:51:15;;;;;;;5.05;3.20;;;;;;;22.05;84.35;100360.88;5077028;28;20052;-64
2023/09/18 04:53:41;;;;;;;6.32;3.90;;;;;;;22.07;84.10;100359.59;5077670;28;20092;-64
2023/09/18 04:56:06;;;;;;;7.35;3.63;;;;;;;22.09;84.02;100359.38;5077792;28;20029;-66
2023/09/18 04:58:32;;;;;;;9.40;3.80;;;;;;;22.12;83.28;100359.75;5077380;28;20040;-64
2023/09/18 05:00:59;;;;;;;6.95;3.15;;;;;;;22.14;82.71;100359.53;5078544;28;20040;-65
2023/09/18 05:03:24;;;;;;;13.60;3.60;;;;;;;22.15;82.25;100363.88;5078241;28;20354;-64
2023/09/18 05:05:50;;;;;;;4.65;3.30;;;;;;;22.14;82.77;100365.75;5077323;28;20767;-66
2023/09/18 05:08:16;;;;;;;7.28;3.17;;;;;;;22.16;82.37;100369.06;5077328;28;20051;-65
2023/09/18 05:10:42;;;;;;;4.95;3.08;;;;;;;22.22;81.75;100365.47;5077250;28;20077;-66
2023/09/18 05:13:08;;;;;;;5.00;3.03;;;;;;;22.30;82.07;100361.66;5077077;28;20032;-65
2023/09/18 05:15:33;;;;;;;5.80;3.25;;;;;;;22.31;81.77;100360.59;5077242;28;20219;-65
2023/09/18 05:18:00;;;;;;;5.75;3.03;;;;;;;22.25;81.45;100367.72;5077194;28;20032;-66
2023/09/18 05:20:29;;;;;;;3.58;3.10;;;;;;;22.27;81.04;100372.88;5076943;28;20330;-64
2023/09/18 05:22:56;;;;;;;4.35;3.20;;;;;;;22.30;81.01;100369.75;5075864;28;20041;-65
2023/09/18 05:25:24;;;;;;;7.22;3.17;;;;;;;22.27;80.34;100365.63;5076876;28;20024;-66
2023/09/18 05:27:55;;;;;;;4.85;3.25;;;;;;;22.28;81.01;100366.44;5077296;28;20040;-64
2023/09/18 05:30:25;;;;;;;5.57;3.17;;;;;;;22.29;80.96;100358.13;5077036;28;20258;-64
2023/09/18 05:32:50;;;;;;;4.40;2.85;;;;;;;22.31;81.22;100363.31;5076833;28;20032;-66
2023/09/18 05:35:17;;;;;;;4.55;3.03;;;;;;;22.21;81.59;100363.81;5077254;28;20029;-66
2023/09/18 05:37:43;;;;;;;4.68;3.35;;;;;;;22.19;81.36;100349.72;5075729;28;20040;-64
2023/09/18 05:40:10;;;;;;;5.25;2.83;;;;;;;22.34;80.70;100351.22;5076738;28;20062;-66
2023/09/18 05:42:42;;;;;;;5.93;3.00;;;;;;;22.42;80.13;100354.47;5076568;28;20041;-66
2023/09/18 05:45:08;;;;;;;4.80;3.55;;;;;;;22.48;79.02;100363.53;5077106;28;20279;-64
2023/09/18 05:47:35;;;;;;;5.63;3.25;;;;;;;22.49;78.89;100367.88;5077646;28;20092;-64
2023/09/18 05:50:06;;;;;;;4.53;2.65;;;;;;;22.48;79.08;100361.66;5077854;28;20059;-64
2023/09/18 05:52:32;;;;;;;6.53;3.35;;;;;;;22.54;78.77;100366.16;5063938;28;20095;-66
2023/09/18 05:54:57;;;;;;;6.95;3.67;;;;;;;22.65;79.10;100359.19;5058573;28;20356;-64
2023/09/18 05:57:23;;;;;;;8.25;4.15;;;;;;;22.71;78.83;100362.84;5058156;28;20037;-64
2023/09/18 05:59:48;;;;;;;8.48;3.10;;;;;;;22.78;78.54;100369.00;5057933;28;20407;-65
2023/09/18 06:02:16;;;;;;;11.65;3.67;;;;;;;22.85;78.29;100367.06;5058683;28;20049;-65
2023/09/18 06:04:42;;;;;;;6.38;3.60;;;;;;;22.84;77.33;100371.63;5058534;28;20035;-66
2023/09/18 06:07:07;;;;;;;31.42;5.75;;;;;;;22.91;76.93;100369.72;5058893;28;20033;-65
2023/09/18 06:09:32;;;;;;;6.90;3.50;;;;;;;22.94;77.15;100371.13;5058286;28;20029;-66
2023/09/18 06:11:59;;;;;;;14.10;3.90;;;;;;;22.89;76.26;100366.41;5057662;28;20037;-64
2023/09/18 06:14:25;;;;;;;7.75;4.18;;;;;;;22.80;74.79;100373.16;5057857;28;20033;-64
2023/09/18 06:16:50;;;;;;;21.40;4.40;;;;;;;23.06;74.47;100377.41;5058441;28;20039;-64
2023/09/18 06:19:17;;;;;;;82.38;12.20;;;;;;;23.27;74.09;100376.09;5058701;28;20047;-66
2023/09/18 06:21:43;;;;;;;7.70;3.67;;;;;;;23.37;73.66;100376.34;5058168;28;20474;-66
2023/09/18 06:24:09;;;;;;;4.70;3.25;;;;;;;23.48;73.29;100380.97;5057999;28;20045;-64
2023/09/18 06:26:35;;;;;;;8.85;3.22;;;;;;;23.34;72.29;100375.97;5057650;28;20047;-66
2023/09/18 06:29:01;;;;;;;27.35;5.65;;;;;;;23.41;71.40;100385.66;5057826;28;20079;-64
2023/09/18 06:31:28;;;;;;;9.38;3.33;;;;;;;23.53;70.93;100385.69;5057581;28;20037;-65
2023/09/18 06:33:53;;;;;;;8.35;3.15;;;;;;;23.41;70.19;100391.03;5056782;28;20108;-66
2023/09/18 06:36:19;;;;;;;7.45;3.67;;;;;;;23.37;71.35;100383.63;5056846;28;20041;-64
2023/09/18 06:38:44;;;;;;;12.63;3.60;;;;;;;23.45;70.03;100384.13;5056743;28;20040;-64
2023/09/18 06:41:10;;;;;;;3.83;2.95;;;;;;;23.42;68.98;100389.16;5056906;28;20040;-66
2023/09/18 06:43:35;;;;;;;4.68;2.90;;;;;;;23.56;68.71;100379.84;5056792;28;20124;-66
2023/09/18 06:46:00;;;;;;;6.65;2.75;;;;;;;23.58;68.95;100385.84;5057022;28;20039;-66
2023/09/18 06:48:26;;;;;;;4.30;2.20;;;;;;;23.25;68.55;100395.22;5057659;28;20052;-64
2023/09/18 06:50:51;;;;;;;3.10;1.95;;;;;;;22.84;69.68;100392.41;5056720;28;20033;-64
2023/09/18 06:53:17;;;;;;;5.63;2.50;;;;;;;22.69;70.39;100383.84;5055537;28;20049;-64
2023/09/18 06:55:42;;;;;;;2.83;2.53;;;;;;;22.79;69.89;100392.25;5055173;28;20045;-66
2023/09/18 06:58:08;;;;;;;3.65;2.60;;;;;;;23.07;69.91;100395.25;5056418;28;20041;-66
2023/09/18 07:00:33;;;;;;;5.47;2.75;;;;;;;23.36;68.96;100390.09;5055731;28;20036;-64
2023/09/18 07:02:59;;;;;;;3.97;2.63;;;;;;;23.25;68.41;100386.28;5055830;28;20235;-66
2023/09/18 07:05:24;;;;;;;4.75;2.65;;;;;;;23.19;68.51;100379.94;5055671;28;20431;-64
2023/09/18 07:07:50;;;;;;;4.80;3.22;;;;;;;23.33;68.57;100377.03;5055567;28;20055;-66
2023/09/18 07:10:15;;;;;;;6.22;3.92;;;;;;;23.54;67.99;100381.91;5055248;28;20078;-66
2023/09/18 07:12:41;;;;;;;9.15;3.15;;;;;;;23.98;66.73;100375.22;5054610;28;20044;-64
2023/09/18 07:15:07;;;;;;;9.90;3.30;;;;;;;24.27;65.59;100378.06;5056647;28;20215;-67
2023/09/18 07:17:33;;;;;;;27.67;6.05;;;;;;;24.50;64.11;100368.03;5055225;28;20301;-66
2023/09/18 07:20:00;;;;;;;8.55;3.40;;;;;;;24.03;62.74;100372.63;5055965;28;20021;-66
2023/09/18 07:22:25;;;;;;;3.22;2.55;;;;;;;23.73;63.39;100374.56;5056934;28;20045;-64
2023/09/18 07:24:50;;;;;;;34.28;5.68;;;;;;;23.92;63.67;100381.53;5055486;28;20259;-66
2023/09/18 07:27:16;;;;;;;3.38;1.83;;;;;;;24.18;62.23;100380.28;5055283;28;20273;-65
2023/09/18 07:29:41;;;;;;;3.08;2.38;;;;;;;24.51;63.16;100379.69;5055357;28;20244;-66
2023/09/18 07:32:07;;;;;;;3.83;2.35;;;;;;;24.90;61.89;100375.34;5055022;28;20045;-66
2023/09/18 07:34:33;;;;;;;18.92;4.88;;;;;;;24.61;61.83;100384.50;5054950;28;20029;-64
2023/09/18 07:36:58;;;;;;;160.73;20.90;;;;;;;24.11;63.64;100393.94;5054816;28;20041;-66
2023/09/18 07:39:24;;;;;;;4.38;2.67;;;;;;;23.87;63.40;100387.66;5054812;28;20029;-64
2023/09/18 07:41:50;;;;;;;4.40;2.50;;;;;;;24.05;63.25;100389.47;5054289;28;20040;-66
2023/09/18 07:44:20;;;;;;;4.00;2.00;;;;;;;23.86;61.89;100396.00;5054737;28;20042;-66
2023/09/18 07:46:45;;;;;;;26.50;4.10;;;;;;;23.52;62.63;100392.13;5054270;28;20033;-64
2023/09/18 07:49:11;;;;;;;3.30;2.00;;;;;;;23.81;60.81;100398.56;5054766;28;20054;-66
2023/09/18 07:51:36;;;;;;;3.85;2.20;;;;;;;23.86;61.83;100391.41;5061683;28;20040;-65
2023/09/18 07:54:02;;;;;;;11.40;3.63;;;;;;;23.72;63.59;100392.69;5057111;28;20322;-66
2023/09/18 07:56:28;;;;;;;3.38;2.25;;;;;;;23.75;64.27;100388.69;5075468;28;20281;-64
2023/09/18 07:58:53;;;;;;;4.03;2.33;;;;;;;23.67;65.78;100399.84;5075886;28;20060;-66
2023/09/18 08:01:22;;;;;;;4.13;2.78;;;;;;;23.76;64.65;100383.06;5074907;28;20037;-66
2023/09/18 08:03:47;;;;;;;3.05;2.45;;;;;;;23.84;64.48;100390.81;5075305;28;20036;-65
2023/09/18 08:06:15;;;;;;;4.47;2.85;;;;;;;23.93;64.41;100380.50;5076060;28;20675;-66
2023/09/18 08:08:41;;;;;;;3.40;2.20;;;;;;;24.08;63.43;100380.88;5075960;28;20033;-64
2023/09/18 08:11:08;;;;;;;3.15;2.35;;;;;;;24.01;62.86;100379.34;5075562;28;20024;-66
2023/09/18 08:13:34;;;;;;;3.85;2.42;;;;;;;23.55;63.83;100380.91;5075872;28;20044;-64
2023/09/18 08:15:59;;;;;;;4.65;3.10;;;;;;;23.72;64.40;100373.75;5076001;28;20028;-64
2023/09/18 08:18:26;;;;;;;3.50;2.20;;;;;;;23.41;62.68;100372.13;5074985;28;20045;-66
2023/09/18 08:20:54;;;;;;;13.18;3.40;;;;;;;23.67;62.57;100370.94;5074656;28;20226;-64
2023/09/18 08:23:20;;;;;;;2.80;2.50;;;;;;;23.86;62.23;100375.19;5076650;28;20140;-66
2023/09/18 08:25:46;;;;;;;445.15;53.90;;;;;;;23.98;62.00;100364.41;5077958;28;20040;-64
2023/09/18 08:28:15;;;;;;;62.33;10.80;;;;;;;24.41;62.77;100361.34;5078448;28;20048;-64
2023/09/18 08:30:40;;;;;;;4.70;2.25;;;;;;;24.47;58.29;100357.69;5077363;28;20077;-66
2023/09/18 08:33:06;;;;;;;2.88;1.80;;;;;;;24.77;56.69;100359.38;5079396;28;20063;-66
2023/09/18 08:35:32;;;;;;;6.07;2.47;;;;;;;24.81;55.07;100360.56;5078012;28;20036;-66
2023/09/18 08:37:57;;;;;;;3.97;2.25;;;;;;;24.73;57.77;100353.63;5079922;28;20039;-66
2023/09/18 08:40:23;;;;;;;6.18;2.60;;;;;;;24.84;57.21;100358.19;5077885;28;20354;-66
2023/09/18 08:42:52;;;;;;;16.52;3.22;;;;;;;24.92;54.88;100361.56;5079373;28;20401;-66
2023/09/18 08:45:35;;;;;;;33.53;4.75;;;;;;;25.02;56.07;100348.28;5078726;28;20036;-66
2023/09/18 08:48:01;;;;;;;5.63;2.70;;;;;;;24.88;56.70;100355.81;5079624;28;20273;-66
2023/09/18 08:50:29;;;;;;;27.50;6.43;;;;;;;24.42;58.18;100354.06;5077609;28;20070;-66
2023/09/18 08:52:56;;;;;;;4.63;2.28;;;;;;;24.64;58.50;100344.22;5079651;28;20064;-64
2023/09/18 08:55:22;;;;;;;3.78;2.30;;;;;;;24.88;57.91;100344.16;5079064;28;20032;-64
2023/09/18 08:57:49;;;;;;;5.32;2.10;;;;;;;24.80;56.02;100345.38;5078922;28;20412;-65
2023/09/18 09:00:17;;;;;;;3.42;2.10;;;;;;;24.41;56.55;100341.59;5078014;28;20074;-66
2023/09/18 09:02:44;;;;;;;8.77;2.47;;;;;;;24.46;56.70;100334.38;5078033;28;20048;-64
2023/09/18 09:05:09;;;;;;;18.65;3.90;;;;;;;24.58;57.28;100337.06;5079450;28;20032;-66
2023/09/18 09:07:35;;;;;;;3.25;2.45;;;;;;;24.69;58.53;100338.91;5077022;28;20052;-64
2023/09/18 09:10:00;;;;;;;2.83;2.00;;;;;;;24.73;56.91;100329.25;5079282;28;20035;-64
2023/09/18 09:12:55;;;;;;;5.55;2.53;;;;;;;24.93;56.72;100334.25;5078402;28;20033;-64
2023/09/18 09:15:26;;;;;;;4.82;2.50;;;;;;;24.91;55.05;100333.66;5078337;28;20051;-64
2023/09/18 09:18:01;;;;;;;2.85;2.15;;;;;;;24.80;55.42;100335.34;5077614;28;20232;-64
2023/09/18 09:20:27;;;;;;;4.50;2.40;;;;;;;24.69;55.51;100327.25;5078304;28;20036;-64
2023/09/18 09:22:53;;;;;;;2.50;2.22;;;;;;;24.62;55.71;100330.09;5079081;28;20124;-64
2023/09/18 09:25:27;;;;;;;17.25;4.18;;;;;;;24.83;56.63;100325.91;5077829;28;20238;-66
2023/09/18 09:27:53;;;;;;;2.80;2.40;;;;;;;24.92;55.97;100321.75;5078561;28;20033;-66
2023/09/18 09:30:24;;;;;;;2.75;2.30;;;;;;;25.04;54.23;100327.19;5077198;28;20043;-66
2023/09/18 09:32:52;;;;;;;5.55;2.65;;;;;;;24.90;51.68;100323.88;5078548;28;20044;-66
2023/09/18 09:35:27;;;;;;;3.92;2.78;;;;;;;24.83;53.11;100321.31;5076695;28;20050;-66
2023/09/18 09:38:07;;;;;;;3.53;2.70;;;;;;;24.42;53.19;100326.97;5077858;28;20036;-64
2023/09/18 09:40:33;;;;;;;3.88;2.85;;;;;;;24.23;52.97;100328.16;5078387;28;20418;-64
2023/09/18 09:43:01;;;;;;;3.08;2.63;;;;;;;24.40;52.76;100319.09;5077164;28;20033;-64
2023/09/18 09:45:35;;;;;;;3.55;3.05;;;;;;;24.55;52.91;100324.00;5078291;28;20040;-66
2023/09/18 09:48:02;;;;;;;3.58;2.58;;;;;;;24.57;51.70;100321.06;5076960;28;20101;-66
2023/09/18 09:50:28;;;;;;;5.20;3.00;;;;;;;24.72;51.50;100315.94;5077638;28;20064;-64
2023/09/18 09:52:54;;;;;;;4.97;2.90;;;;;;;24.80;52.28;100320.97;5077555;28;20056;-66
2023/09/18 09:55:30;;;;;;;3.45;2.30;;;;;;;24.72;51.88;100313.25;5076747;28;20068;-65
2023/09/18 09:57:59;;;;;;;3.38;2.28;;;;;;;24.82;51.22;100316.16;5078348;28;20040;-64
2023/09/18 10:00:33;;;;;;;4.32;2.88;;;;;;;24.90;51.56;100301.41;5076386;28;20285;-64
2023/09/18 10:03:04;;;;;;;18.70;4.55;;;;;;;25.01;51.27;100306.00;5078538;28;20044;-66
2023/09/18 10:05:32;;;;;;;3.78;2.28;;;;;;;25.09;49.91;100294.75;5077647;28;20037;-64
2023/09/18 10:07:59;;;;;;;2.55;2.05;;;;;;;24.92;50.75;100302.78;5077016;28;20040;-66
2023/09/18 10:10:31;;;;;;;3.08;2.20;;;;;;;24.77;50.39;100307.94;5078496;28;20035;-64
2023/09/18 10:13:01;;;;;;;94.05;13.50;;;;;;;24.86;49.90;100294.81;5076356;28;20064;-64
2023/09/18 10:15:28;;;;;;;3.03;2.28;;;;;;;24.78;50.52;100285.19;5078928;28;20306;-65
2023/09/18 10:17:56;;;;;;;3.63;2.72;;;;;;;24.87;49.73;100283.75;5076160;28;20033;-65
2023/09/18 10:20:26;;;;;;;4.20;2.47;;;;;;;24.93;48.72;100290.91;5078238;28;20051;-64
2023/09/18 10:22:56;;;;;;;5.35;2.55;;;;;;;25.08;48.60;100295.84;5075746;28;20353;-64
2023/09/18 10:25:23;;;;;;;6.78;2.70;;;;;;;25.10;47.92;100289.09;5076645;28;20071;-66
2023/09/18 10:27:53;;;;;;;3.40;2.30;;;;;;;25.06;48.89;100285.25;5077889;28;20230;-64
2023/09/18 10:30:22;;;;;;;8.35;3.17;;;;;;;25.14;48.66;100286.72;5075655;28;20037;-64
2023/09/18 10:32:49;;;;;;;4.60;2.45;;;;;;;25.06;49.70;100274.41;5073473;28;20037;-66
2023/09/18 10:35:15;;;;;;;18.58;3.88;;;;;;;25.12;49.22;100278.84;5077753;28;20070;-66
2023/09/18 10:37:45;;;;;;;6.10;2.65;;;;;;;25.13;48.87;100269.66;5075971;28;20340;-65
2023/09/18 10:40:12;;;;;;;3.72;2.40;;;;;;;25.27;49.46;100270.16;5076581;28;20043;-64
2023/09/18 10:42:40;;;;;;;3.88;2.25;;;;;;;25.40;49.59;100269.00;5077795;28;20301;-65
2023/09/18 10:45:11;;;;;;;19.38;3.92;;;;;;;25.52;50.77;100256.19;5077807;28;20047;-65
2023/09/18 10:47:43;;;;;;;5.70;2.20;;;;;;;25.67;49.71;100259.16;5077410;28;20036;-65
2023/09/18 10:50:09;;;;;;;20.15;4.80;;;;;;;25.73;48.19;100249.19;5076784;28;20258;-64
2023/09/18 10:52:35;;;;;;;3.55;2.70;;;;;;;25.82;48.87;100246.88;5076476;28;20049;-66
2023/09/18 10:55:04;;;;;;;4.97;2.50;;;;;;;25.87;47.59;100247.78;5076343;28;20055;-65
2023/09/18 10:57:37;;;;;;;2.97;2.38;;;;;;;25.59;46.76;100251.41;5077618;28;20036;-66
2023/09/18 11:00:13;;;;;;;4.80;2.45;;;;;;;25.36;47.30;100248.88;5075509;28;20269;-64
2023/09/18 11:02:40;;;;;;;2.47;2.28;;;;;;;25.27;46.50;100243.03;5077670;28;20099;-66
2023/09/18 11:05:06;;;;;;;6.90;3.08;;;;;;;25.28;47.19;100241.97;5075358;28;20036;-64
2023/09/18 11:07:32;;;;;;;3.72;2.10;;;;;;;25.40;47.18;100237.28;5077556;28;20321;-66
2023/09/18 11:09:57;;;;;;;4.85;2.72;;;;;;;25.51;48.72;100232.84;5076001;28;20040;-64
2023/09/18 11:12:43;;;;;;;3.08;2.45;;;;;;;25.50;47.29;100242.06;5075805;28;20059;-64
2023/09/18 11:15:24;;;;;;;3.22;2.10;;;;;;;25.42;46.20;100234.34;5075928;28;20094;-66
2023/09/18 11:17:59;;;;;;;8.27;2.20;;;;;;;25.47;45.59;100220.84;5076284;28;20050;-64
2023/09/18 11:20:27;;;;;;;3.10;2.35;;;;;;;25.49;45.74;100228.75;5076088;28;20032;-64
2023/09/18 11:23:02;;;;;;;2.83;1.98;;;;;;;25.34;45.90;100223.91;5077612;28;20233;-64